Terminal Aerodrome Forecast
Issued by NWS

Home | Current Version | Previous Version | Text Only | Print | Product List | Glossary On
Versions: 1 2 3 4 5 6 7 8 9 10 11 12 13 14 15 16
735
FTUS44 KLZK 172335
TAFHRO
TAF
KHRO 172335Z 1800/1824 19014G22KT P6SM SCT025 OVC060 WS020/22045KT
      TEMPO 1800/1803 BKN025
     FM181000 20015G25KT P6SM BKN020 OVC050 WS020/22045KT
     FM181500 29018G28KT P6SM VCSH OVC020
     FM181900 31018G28KT P6SM SCT030 BKN060=

USA.gov is the U.S. government's official web portal to all federal, state and local government web resources and services.